Time;durP1;ratioP1;P1;durP2;ratioP2;P2;SDS_P1;SDS_P2;PMS_P1;PMS_P2;Temp;Humidity;BMP_temperature;BMP_pressure;BME280_temperature;BME280_humidity;BME280_pressure;Samples;Min_cycle;Max_cycle;Signal;HPM_P1;HPM_P2
2022/06/24 05:34:07;;;;;;;8.35;3.20;;;;;;;;;;7388766;19;20203;-83
2022/06/24 05:36:34;;;;;;;7.53;3.58;;;;;;;;;;7386758;19;20225;-82
2022/06/24 05:39:03;;;;;;;10.10;3.40;;;;;;;;;;7387165;19;20159;-83
2022/06/24 05:41:29;;;;;;;12.27;3.63;;;;;;;;;;7399913;19;20151;-86
2022/06/24 05:43:55;;;;;;;10.63;3.67;;;;;;;;;;7408249;19;20147;-85
2022/06/24 05:46:21;;;;;;;9.32;4.07;;;;;;;;;;7411346;19;20121;-85
2022/06/24 05:48:47;;;;;;;9.30;3.22;;;;;;;;;;7402236;19;20137;-81
2022/06/24 05:51:18;;;;;;;6.57;2.42;;;;;;;;;;7383959;19;20168;-81
2022/06/24 05:56:29;;;;;;;5.68;2.83;;;;;;;;;;7390134;19;20554;-82
2022/06/24 05:58:57;;;;;;;6.55;2.53;;;;;;;;;;7388015;19;20165;-81
2022/06/24 06:01:24;;;;;;;8.80;2.53;;;;;;;;;;7386119;19;20167;-81
2022/06/24 06:03:50;;;;;;;12.63;3.17;;;;;;;;;;7390809;19;20145;-85
2022/06/24 06:06:17;;;;;;;7.72;2.40;;;;;;;;;;7411574;19;20117;-86
2022/06/24 06:08:43;;;;;;;5.85;2.45;;;;;;;;;;7410432;19;20144;-81
2022/06/24 06:11:12;;;;;;;4.70;2.45;;;;;;;;;;7386652;19;20176;-82
2022/06/24 06:13:39;;;;;;;5.88;2.72;;;;;;;;;;7386377;19;20133;-81
2022/06/24 06:16:05;;;;;;;10.45;2.58;;;;;;;;;;7385930;19;20141;-81
2022/06/24 06:18:31;;;;;;;8.32;2.65;;;;;;;;;;7387018;19;20149;-84
2022/06/24 06:21:01;;;;;;;5.25;2.33;;;;;;;;;;7386643;19;20181;-82
2022/06/24 06:23:28;;;;;;;11.98;2.88;;;;;;;;;;7387453;19;20752;-83
2022/06/24 06:25:54;;;;;;;9.02;3.08;;;;;;;;;;7389159;19;20167;-81
2022/06/24 06:28:20;;;;;;;5.90;2.30;;;;;;;;;;7393084;19;20125;-81
2022/06/24 06:30:46;;;;;;;9.85;3.15;;;;;;;;;;7388906;19;20164;-82
2022/06/24 06:33:12;;;;;;;6.55;2.80;;;;;;;;;;7384204;19;20158;-83
2022/06/24 06:35:38;;;;;;;5.97;2.60;;;;;;;;;;7387553;19;20125;-82
2022/06/24 06:38:04;;;;;;;9.13;3.17;;;;;;;;;;7381259;19;20137;-82
2022/06/24 06:40:30;;;;;;;7.28;2.90;;;;;;;;;;7380841;19;20156;-81
2022/06/24 06:42:56;;;;;;;8.32;2.90;;;;;;;;;;7384480;19;20701;-83
2022/06/24 06:45:22;;;;;;;5.00;2.25;;;;;;;;;;7380446;19;20541;-84
2022/06/24 06:47:48;;;;;;;7.60;3.13;;;;;;;;;;7381798;19;20141;-82
2022/06/24 06:50:14;;;;;;;6.88;3.05;;;;;;;;;;7383133;19;20246;-82
2022/06/24 06:52:40;;;;;;;8.57;3.30;;;;;;;;;;7384907;19;20129;-83
2022/06/24 06:55:07;;;;;;;8.77;2.50;;;;;;;;;;7381520;19;20181;-85
2022/06/24 06:57:33;;;;;;;7.63;2.88;;;;;;;;;;7382458;19;20133;-83
2022/06/24 06:59:59;;;;;;;7.80;2.63;;;;;;;;;;7383454;19;20460;-81
2022/06/24 07:02:25;;;;;;;9.13;2.85;;;;;;;;;;7384317;19;20125;-81
2022/06/24 07:04:51;;;;;;;10.20;3.08;;;;;;;;;;7381444;19;20213;-81
2022/06/24 07:07:17;;;;;;;10.23;3.15;;;;;;;;;;7375005;19;20125;-83
2022/06/24 07:09:43;;;;;;;10.45;3.25;;;;;;;;;;7381751;19;20250;-81
2022/06/24 07:12:09;;;;;;;6.95;2.60;;;;;;;;;;7380269;19;20619;-81
2022/06/24 07:14:35;;;;;;;7.15;2.60;;;;;;;;;;7383109;19;20125;-82
2022/06/24 07:17:01;;;;;;;8.35;2.78;;;;;;;;;;7392013;19;20153;-81
2022/06/24 07:19:27;;;;;;;5.93;2.60;;;;;;;;;;7389482;19;20137;-82
2022/06/24 07:21:53;;;;;;;4.78;2.50;;;;;;;;;;7395574;19;20144;-83
2022/06/24 07:24:19;;;;;;;7.10;2.50;;;;;;;;;;7387948;19;20602;-82
2022/06/24 07:26:45;;;;;;;7.88;2.25;;;;;;;;;;7382368;19;20129;-81
2022/06/24 07:29:11;;;;;;;10.43;3.22;;;;;;;;;;7391506;19;20125;-83
2022/06/24 07:31:37;;;;;;;8.48;3.22;;;;;;;;;;7388814;19;20164;-82
2022/06/24 07:34:04;;;;;;;8.05;3.22;;;;;;;;;;7386560;19;20913;-82
2022/06/24 07:36:30;;;;;;;8.40;2.95;;;;;;;;;;7393114;19;20125;-82
2022/06/24 07:38:56;;;;;;;8.63;3.10;;;;;;;;;;7386211;19;20125;-82
2022/06/24 07:41:22;;;;;;;6.93;3.17;;;;;;;;;;7386896;19;20161;-81
2022/06/24 07:43:49;;;;;;;8.50;3.05;;;;;;;;;;7390163;19;20208;-81
2022/06/24 07:46:14;;;;;;;10.45;3.63;;;;;;;;;;7386429;19;20137;-81
2022/06/24 07:48:40;;;;;;;8.45;3.20;;;;;;;;;;7387919;19;20128;-81
2022/06/24 07:51:11;;;;;;;8.70;3.60;;;;;;;;;;7391977;19;20508;-82
2022/06/24 07:53:37;;;;;;;7.47;3.35;;;;;;;;;;7391702;19;20478;-82
2022/06/24 07:58:47;;;;;;;12.35;3.53;;;;;;;;;;7393115;19;20115;-82
2022/06/24 08:01:13;;;;;;;9.15;3.70;;;;;;;;;;7388801;19;20528;-84
2022/06/24 08:03:39;;;;;;;7.65;3.30;;;;;;;;;;7392144;19;20367;-83
2022/06/24 08:06:05;;;;;;;9.02;3.20;;;;;;;;;;7391213;19;20144;-86
2022/06/24 08:08:31;;;;;;;9.00;3.33;;;;;;;;;;7419321;19;20137;-86
2022/06/24 08:10:57;;;;;;;13.05;3.72;;;;;;;;;;7415163;19;20125;-85
2022/06/24 08:13:23;;;;;;;6.38;3.17;;;;;;;;;;7389029;19;20173;-81
2022/06/24 08:15:49;;;;;;;9.60;3.35;;;;;;;;;;7389176;19;20476;-82
2022/06/24 08:18:17;;;;;;;9.30;3.35;;;;;;;;;;7392060;19;20197;-83
2022/06/24 08:20:43;;;;;;;8.88;3.25;;;;;;;;;;7388701;19;20160;-85
2022/06/24 08:23:10;;;;;;;4.97;3.15;;;;;;;;;;7392184;19;20117;-84
2022/06/24 08:25:36;;;;;;;8.02;2.88;;;;;;;;;;7393980;19;20137;-83
2022/06/24 08:28:02;;;;;;;9.18;3.15;;;;;;;;;;7392291;19;20144;-82
2022/06/24 08:30:29;;;;;;;6.68;3.08;;;;;;;;;;7394048;19;20515;-83
2022/06/24 08:32:55;;;;;;;6.30;3.08;;;;;;;;;;7390706;19;20129;-83
2022/06/24 08:35:21;;;;;;;9.25;3.63;;;;;;;;;;7383684;19;20208;-83
2022/06/24 08:37:47;;;;;;;8.40;3.15;;;;;;;;;;7384699;19;20606;-83
2022/06/24 08:40:13;;;;;;;9.93;3.20;;;;;;;;;;7383552;19;20174;-82
2022/06/24 08:42:39;;;;;;;8.38;3.35;;;;;;;;;;7386269;19;20150;-83
2022/06/24 08:45:06;;;;;;;7.95;3.17;;;;;;;;;;7385844;19;20136;-82
2022/06/24 08:47:32;;;;;;;9.68;3.67;;;;;;;;;;7390363;19;20129;-83
2022/06/24 08:49:58;;;;;;;10.48;3.67;;;;;;;;;;7389637;19;20129;-84
2022/06/24 08:52:23;;;;;;;10.15;3.75;;;;;;;;;;7387323;19;20125;-85
2022/06/24 08:54:50;;;;;;;10.77;3.60;;;;;;;;;;7388035;19;20181;-82
2022/06/24 08:57:16;;;;;;;12.43;3.55;;;;;;;;;;7389622;19;20154;-83
2022/06/24 08:59:43;;;;;;;13.02;4.15;;;;;;;;;;7386461;19;20195;-82
2022/06/24 09:02:13;;;;;;;8.45;3.38;;;;;;;;;;7387543;19;20128;-82
2022/06/24 09:04:42;;;;;;;6.95;3.22;;;;;;;;;;7385632;19;20121;-82
2022/06/24 09:07:08;;;;;;;11.35;3.50;;;;;;;;;;7406047;19;20355;-84
2022/06/24 09:09:34;;;;;;;10.00;3.88;;;;;;;;;;7421831;19;20106;-85
2022/06/24 09:12:02;;;;;;;8.05;3.45;;;;;;;;;;7419620;19;20125;-85
2022/06/24 09:14:44;;;;;;;9.65;3.47;;;;;;;;;;7419420;19;20142;-84
2022/06/24 09:17:11;;;;;;;12.15;3.67;;;;;;;;;;7415381;19;20129;-82
2022/06/24 09:19:37;;;;;;;7.50;3.63;;;;;;;;;;7399672;19;20501;-85
2022/06/24 09:22:05;;;;;;;9.93;3.38;;;;;;;;;;7410684;19;20178;-84
2022/06/24 09:24:47;;;;;;;6.68;3.00;;;;;;;;;;7414357;19;20129;-85
2022/06/24 09:27:13;;;;;;;8.85;3.30;;;;;;;;;;7417439;19;20136;-83
2022/06/24 09:29:49;;;;;;;10.35;3.90;;;;;;;;;;7408378;19;20153;-85
2022/06/24 09:32:15;;;;;;;9.05;3.58;;;;;;;;;;7405928;19;20132;-84
2022/06/24 09:35:17;;;;;;;8.63;3.40;;;;;;;;;;7419851;19;20125;-84
2022/06/24 09:37:44;;;;;;;8.32;3.10;;;;;;;;;;7415446;19;20169;-84
2022/06/24 09:40:17;;;;;;;6.30;3.03;;;;;;;;;;7405403;19;20155;-82
2022/06/24 09:42:43;;;;;;;7.88;3.45;;;;;;;;;;7401484;19;20134;-82
2022/06/24 09:45:09;;;;;;;7.95;3.70;;;;;;;;;;7396570;19;20157;-81
2022/06/24 09:47:39;;;;;;;9.90;3.45;;;;;;;;;;7394699;19;20166;-82
2022/06/24 09:50:05;;;;;;;8.25;3.35;;;;;;;;;;7413158;19;20125;-84
2022/06/24 09:52:34;;;;;;;7.03;3.28;;;;;;;;;;7417911;19;20121;-84
2022/06/24 09:55:02;;;;;;;6.03;2.72;;;;;;;;;;7414262;19;20137;-83
2022/06/24 09:57:28;;;;;;;10.63;3.17;;;;;;;;;;7388576;19;20154;-81
2022/06/24 10:03:24;;;;;;;9.32;3.75;;;;;;;;;;7390071;19;20589;-82
2022/06/24 10:05:51;;;;;;;8.60;3.55;;;;;;;;;;7386924;19;20133;-81
2022/06/24 10:08:18;;;;;;;8.40;3.35;;;;;;;;;;7387734;19;20140;-82
2022/06/24 10:10:48;;;;;;;7.93;2.75;;;;;;;;;;7387810;19;20160;-81
2022/06/24 10:13:24;;;;;;;6.78;3.10;;;;;;;;;;7416532;19;20132;-84
2022/06/24 10:15:51;;;;;;;9.95;3.13;;;;;;;;;;7417105;19;20140;-82
2022/06/24 10:18:19;;;;;;;5.93;3.92;;;;;;;;;;7416365;19;20137;-83
2022/06/24 10:20:45;;;;;;;7.22;3.35;;;;;;;;;;7408611;19;20167;-80
2022/06/24 10:23:39;;;;;;;6.20;2.92;;;;;;;;;;7388006;19;20141;-80
2022/06/24 10:26:31;;;;;;;8.63;3.08;;;;;;;;;;7383912;19;20129;-83
2022/06/24 10:29:00;;;;;;;6.22;3.05;;;;;;;;;;7405579;19;20136;-84
2022/06/24 10:34:29;;;;;;;6.40;3.03;;;;;;;;;;7417105;19;20122;-83
2022/06/24 10:37:08;;;;;;;10.77;2.90;;;;;;;;;;7414840;19;20121;-84
2022/06/24 10:39:36;;;;;;;6.72;2.97;;;;;;;;;;7386979;19;20613;-81
2022/06/24 10:42:03;;;;;;;8.23;3.05;;;;;;;;;;7385642;19;20147;-82
2022/06/24 10:44:50;;;;;;;4.95;3.08;;;;;;;;;;7384056;19;20137;-81
2022/06/24 10:47:18;;;;;;;6.28;2.65;;;;;;;;;;7387703;19;20131;-81
2022/06/24 10:50:23;;;;;;;7.05;3.45;;;;;;;;;;7385349;19;20148;-83
2022/06/24 10:52:47;;;;;;;5.05;2.58;;;;;;;;;;7394811;19;20208;-81
2022/06/24 10:55:16;;;;;;;4.78;2.42;;;;;;;;;;7397536;19;20125;-83
2022/06/24 10:57:52;;;;;;;8.07;2.88;;;;;;;;;;7388220;19;20143;-81
2022/06/24 11:00:19;;;;;;;4.60;2.70;;;;;;;;;;7391722;19;20614;-80
2022/06/24 11:02:45;;;;;;;7.75;3.55;;;;;;;;;;7393609;19;20173;-83
2022/06/24 11:05:20;;;;;;;6.70;2.85;;;;;;;;;;7392929;19;20135;-81
2022/06/24 11:07:46;;;;;;;7.63;3.30;;;;;;;;;;7391911;19;20129;-79
2022/06/24 11:10:17;;;;;;;7.63;3.15;;;;;;;;;;7400596;19;20177;-85
2022/06/24 11:12:47;;;;;;;7.40;3.83;;;;;;;;;;7411098;19;20328;-82
2022/06/24 11:15:13;;;;;;;8.98;3.58;;;;;;;;;;7397686;19;20129;-82
2022/06/24 11:17:41;;;;;;;5.70;3.50;;;;;;;;;;7393946;19;20145;-84
2022/06/24 11:20:08;;;;;;;9.70;4.22;;;;;;;;;;7388317;19;20894;-80
2022/06/24 11:22:47;;;;;;;12.95;4.35;;;;;;;;;;7392508;19;20495;-80
2022/06/24 11:25:14;;;;;;;9.50;3.67;;;;;;;;;;7389719;19;20136;-80
2022/06/24 11:27:40;;;;;;;8.15;3.42;;;;;;;;;;7390885;19;20582;-81
2022/06/24 11:30:07;;;;;;;9.63;4.03;;;;;;;;;;7389767;19;20139;-81
2022/06/24 11:32:54;;;;;;;16.70;5.63;;;;;;;;;;7388755;19;20214;-81
2022/06/24 11:35:20;;;;;;;12.38;4.20;;;;;;;;;;7388883;19;20666;-81
2022/06/24 11:37:46;;;;;;;9.18;3.88;;;;;;;;;;7393526;19;20125;-81
2022/06/24 11:40:20;;;;;;;8.38;4.15;;;;;;;;;;7189261;19;105335;-81
2022/06/24 17:34:13;;;;;;;2.88;1.30;;;;;;;;;;7379986;19;20446;-82
2022/06/24 17:36:39;;;;;;;1.52;1.42;;;;;;;;;;7376506;19;20606;-87
2022/06/24 17:39:05;;;;;;;1.88;1.20;;;;;;;;;;7388201;19;20671;-83
2022/06/24 17:41:31;;;;;;;3.03;1.35;;;;;;;;;;7388739;19;20180;-82
2022/06/24 17:43:56;;;;;;;2.25;1.40;;;;;;;;;;7393255;19;20165;-83
2022/06/24 17:46:21;;;;;;;3.05;1.30;;;;;;;;;;7388509;19;20157;-86
2022/06/24 17:48:47;;;;;;;1.70;1.35;;;;;;;;;;7393811;19;20125;-87
2022/06/24 17:51:12;;;;;;;1.70;1.48;;;;;;;;;;7392150;19;20232;-83
2022/06/24 17:53:38;;;;;;;2.33;1.50;;;;;;;;;;7392536;19;20162;-83
2022/06/24 17:56:03;;;;;;;1.60;1.38;;;;;;;;;;7385846;19;20152;-85
2022/06/24 17:58:29;;;;;;;1.35;1.25;;;;;;;;;;7383236;19;20156;-87
2022/06/24 18:00:55;;;;;;;2.95;1.40;;;;;;;;;;7391134;19;20190;-86
2022/06/24 18:03:20;;;;;;;1.20;1.10;;;;;;;;;;7391726;19;20457;-83
2022/06/24 18:05:46;;;;;;;1.50;1.20;;;;;;;;;;7379696;19;20628;-85
2022/06/24 18:08:11;;;;;;;2.10;1.20;;;;;;;;;;7376062;19;20148;-84
2022/06/24 18:10:36;;;;;;;1.38;1.27;;;;;;;;;;7377771;19;20176;-84
2022/06/24 18:13:02;;;;;;;2.33;1.27;;;;;;;;;;7390456;19;20538;-84
2022/06/24 18:15:28;;;;;;;1.35;1.20;;;;;;;;;;7386519;19;20546;-86
2022/06/24 18:17:53;;;;;;;1.20;1.10;;;;;;;;;;7388623;19;20132;-87
2022/06/24 18:20:19;;;;;;;1.50;1.40;;;;;;;;;;7381696;19;20168;-83
2022/06/24 18:22:45;;;;;;;1.40;1.30;;;;;;;;;;7385459;19;20655;-81
2022/06/24 18:25:10;;;;;;;1.40;1.25;;;;;;;;;;7376175;19;20610;-82
2022/06/24 18:27:36;;;;;;;1.33;1.20;;;;;;;;;;7383010;19;20165;-83
2022/06/24 18:30:02;;;;;;;2.92;1.35;;;;;;;;;;7384859;19;20638;-81
2022/06/24 18:32:27;;;;;;;1.40;1.30;;;;;;;;;;7376483;19;20157;-82
2022/06/24 18:34:52;;;;;;;1.60;1.30;;;;;;;;;;7381992;19;20228;-83
2022/06/24 18:37:18;;;;;;;1.48;1.38;;;;;;;;;;7374721;19;20177;-83
2022/06/24 18:39:43;;;;;;;2.22;1.42;;;;;;;;;;7374823;19;20155;-83
2022/06/24 18:42:08;;;;;;;2.55;1.30;;;;;;;;;;7385147;19;20136;-83
2022/06/24 18:44:34;;;;;;;2.72;1.30;;;;;;;;;;7381052;19;20153;-80
2022/06/24 18:46:59;;;;;;;1.20;1.10;;;;;;;;;;7385964;19;20626;-83
2022/06/24 18:49:25;;;;;;;2.00;1.50;;;;;;;;;;7377055;19;20508;-79
2022/06/24 18:51:50;;;;;;;1.90;1.40;;;;;;;;;;7366490;19;20168;-83
2022/06/24 18:54:15;;;;;;;1.83;1.40;;;;;;;;;;7376833;19;20152;-85
2022/06/24 18:56:41;;;;;;;2.50;1.30;;;;;;;;;;7375976;19;20204;-86
2022/06/24 18:59:09;;;;;;;2.08;1.33;;;;;;;;;;7390674;19;20139;-81
2022/06/24 19:01:35;;;;;;;3.25;2.70;;;;;;;;;;7392221;19;20152;-81
2022/06/24 19:04:00;;;;;;;2.65;2.03;;;;;;;;;;7386002;19;20152;-89
2022/06/24 19:06:25;;;;;;;2.22;1.98;;;;;;;;;;7387812;19;20145;-85
2022/06/24 19:08:51;;;;;;;1.50;1.25;;;;;;;;;;7370980;19;20137;-83
2022/06/24 19:11:16;;;;;;;1.65;1.40;;;;;;;;;;7383758;19;20172;-82
2022/06/24 19:13:41;;;;;;;1.40;1.25;;;;;;;;;;7389459;19;20121;-81
2022/06/24 19:16:07;;;;;;;2.63;1.25;;;;;;;;;;7389867;19;20149;-81
2022/06/24 19:21:16;;;;;;;3.50;1.40;;;;;;;;;;7388874;19;20467;-88
2022/06/24 19:23:41;;;;;;;1.98;1.33;;;;;;;;;;7366837;19;20950;-88
2022/06/24 19:26:07;;;;;;;1.30;1.00;;;;;;;;;;7383446;19;20130;-83
2022/06/24 19:28:32;;;;;;;2.13;1.17;;;;;;;;;;7383814;19;20147;-85
2022/06/24 19:30:58;;;;;;;1.58;1.20;;;;;;;;;;7390365;19;20176;-85
2022/06/24 19:33:23;;;;;;;2.95;1.52;;;;;;;;;;7389253;19;20137;-83
2022/06/24 19:35:48;;;;;;;1.20;1.10;;;;;;;;;;7388577;19;20154;-85
2022/06/24 19:38:13;;;;;;;1.50;1.20;;;;;;;;;;7397021;19;20145;-90
2022/06/24 19:40:39;;;;;;;1.77;1.27;;;;;;;;;;7419249;19;20171;-87
2022/06/24 19:43:04;;;;;;;2.42;1.60;;;;;;;;;;7422435;19;20156;-83
2022/06/24 19:45:29;;;;;;;3.20;1.50;;;;;;;;;;7419428;19;20154;-85
2022/06/24 19:47:55;;;;;;;2.53;1.43;;;;;;;;;;7423103;19;20129;-86
2022/06/24 19:50:21;;;;;;;1.93;1.50;;;;;;;;;;7418935;19;20171;-85
2022/06/24 19:52:46;;;;;;;1.97;1.37;;;;;;;;;;7423679;19;20160;-83
2022/06/24 19:55:11;;;;;;;1.93;1.30;;;;;;;;;;7393176;19;20175;-83
2022/06/24 19:57:37;;;;;;;2.07;1.27;;;;;;;;;;7392404;19;20148;-80
2022/06/24 20:00:04;;;;;;;1.75;1.65;;;;;;;;;;7390778;19;20195;-81
2022/06/24 20:07:57;;;;;;;1.63;1.47;;;;;;;;;;7397093;19;20192;-82
2022/06/24 20:10:23;;;;;;;1.63;1.50;;;;;;;;;;7393561;19;20506;-82
2022/06/24 20:12:48;;;;;;;2.83;1.40;;;;;;;;;;7396943;19;20159;-80
2022/06/24 20:15:14;;;;;;;2.70;1.73;;;;;;;;;;7399234;19;20188;-84
2022/06/24 20:17:39;;;;;;;1.67;1.57;;;;;;;;;;7396764;19;20492;-83
2022/06/24 20:20:05;;;;;;;1.77;1.67;;;;;;;;;;7391270;19;20152;-84
2022/06/24 20:22:30;;;;;;;5.83;2.10;;;;;;;;;;7397624;19;20149;-80
2022/06/24 20:24:56;;;;;;;3.37;1.70;;;;;;;;;;7393500;19;20172;-82
2022/06/24 20:27:21;;;;;;;2.90;1.67;;;;;;;;;;7393638;19;20522;-81
2022/06/24 20:29:48;;;;;;;4.73;1.97;;;;;;;;;;7396026;19;20145;-80
2022/06/24 20:32:13;;;;;;;2.70;1.70;;;;;;;;;;7397837;19;20521;-82
2022/06/24 20:34:39;;;;;;;6.77;1.90;;;;;;;;;;7393468;19;20137;-80
2022/06/24 20:37:04;;;;;;;2.13;1.90;;;;;;;;;;7396567;19;20233;-80
2022/06/24 20:39:30;;;;;;;2.93;2.10;;;;;;;;;;7395192;19;20129;-79
2022/06/24 20:41:55;;;;;;;2.30;2.10;;;;;;;;;;7393087;19;20503;-83
2022/06/24 20:44:21;;;;;;;3.75;2.80;;;;;;;;;;7394694;19;20156;-83
2022/06/24 20:46:47;;;;;;;4.03;2.70;;;;;;;;;;7393341;19;20117;-80
2022/06/24 20:49:12;;;;;;;3.47;2.50;;;;;;;;;;7393913;19;20152;-80
2022/06/24 20:51:39;;;;;;;3.93;2.40;;;;;;;;;;7391983;19;20161;-82
2022/06/24 20:54:06;;;;;;;2.97;2.23;;;;;;;;;;7394170;19;20121;-80
2022/06/24 20:56:31;;;;;;;3.00;2.67;;;;;;;;;;7394211;19;20157;-82
2022/06/24 20:58:57;;;;;;;2.93;2.57;;;;;;;;;;7397026;19;20137;-80
2022/06/24 21:01:24;;;;;;;4.03;3.07;;;;;;;;;;7389627;19;20164;-83
2022/06/24 21:03:49;;;;;;;5.40;2.80;;;;;;;;;;7393860;19;21369;-80
2022/06/24 21:06:14;;;;;;;5.20;2.70;;;;;;;;;;7386198;19;20121;-80
2022/06/24 21:08:40;;;;;;;3.23;2.60;;;;;;;;;;7391046;19;20124;-80
2022/06/24 21:11:05;;;;;;;6.73;2.63;;;;;;;;;;7391330;19;20184;-80
2022/06/24 21:13:30;;;;;;;2.70;2.50;;;;;;;;;;7385491;19;20488;-81
2022/06/24 21:15:56;;;;;;;4.30;2.40;;;;;;;;;;7382210;19;20149;-84
2022/06/24 21:18:21;;;;;;;4.13;2.90;;;;;;;;;;7381260;19;20140;-80
2022/06/24 21:20:47;;;;;;;4.23;2.70;;;;;;;;;;7389927;19;20172;-80
2022/06/24 21:23:12;;;;;;;3.77;2.63;;;;;;;;;;7389771;19;20499;-80
2022/06/24 21:25:38;;;;;;;3.37;2.70;;;;;;;;;;7401509;19;20149;-82
2022/06/24 21:28:04;;;;;;;2.90;2.47;;;;;;;;;;7397727;19;20125;-85
2022/06/24 21:30:29;;;;;;;4.93;2.60;;;;;;;;;;7389405;19;20208;-83
2022/06/24 21:32:54;;;;;;;2.93;2.17;;;;;;;;;;7382836;19;20388;-80
2022/06/24 21:35:21;;;;;;;5.20;2.00;;;;;;;;;;7388244;19;20999;-81
2022/06/24 21:37:46;;;;;;;2.37;1.83;;;;;;;;;;7390447;19;20188;-80
2022/06/24 21:40:12;;;;;;;1.97;1.60;;;;;;;;;;7386171;19;20172;-82
2022/06/24 21:42:37;;;;;;;2.93;1.60;;;;;;;;;;7389223;19;20140;-80
2022/06/24 21:45:04;;;;;;;2.33;1.90;;;;;;;;;;7387461;19;20153;-86
2022/06/24 21:47:29;;;;;;;2.60;1.57;;;;;;;;;;7393608;19;20139;-81
2022/06/24 21:49:54;;;;;;;2.60;1.80;;;;;;;;;;7389334;19;20176;-82
2022/06/24 21:52:20;;;;;;;2.63;1.57;;;;;;;;;;7393792;19;20153;-80
2022/06/24 21:54:45;;;;;;;2.57;1.97;;;;;;;;;;7385048;19;20474;-80
2022/06/24 21:57:10;;;;;;;2.10;1.80;;;;;;;;;;7385813;19;20148;-80
2022/06/24 21:59:36;;;;;;;2.80;2.00;;;;;;;;;;7385925;19;20148;-83
2022/06/24 22:02:01;;;;;;;3.03;1.90;;;;;;;;;;7378850;19;20149;-82
2022/06/24 22:04:26;;;;;;;2.40;1.83;;;;;;;;;;7383075;19;20483;-84
2022/06/24 22:06:52;;;;;;;2.60;2.13;;;;;;;;;;7384736;19;20201;-80
2022/06/24 22:09:17;;;;;;;6.00;2.80;;;;;;;;;;7383507;19;20145;-83
2022/06/24 22:11:43;;;;;;;2.53;2.23;;;;;;;;;;7381927;19;20157;-85
2022/06/24 22:14:10;;;;;;;3.23;1.90;;;;;;;;;;7384104;19;20140;-80
2022/06/24 22:16:35;;;;;;;2.07;1.87;;;;;;;;;;7374486;19;20156;-81
2022/06/24 22:19:01;;;;;;;2.53;2.33;;;;;;;;;;7381215;19;23515;-80
2022/06/24 22:21:26;;;;;;;3.27;2.23;;;;;;;;;;7382642;19;20662;-81
2022/06/24 22:23:52;;;;;;;3.03;2.00;;;;;;;;;;7386347;19;20141;-80
2022/06/24 22:26:18;;;;;;;2.50;2.30;;;;;;;;;;7384660;19;20151;-82
2022/06/24 22:28:44;;;;;;;4.10;2.23;;;;;;;;;;7381669;19;20137;-82
2022/06/24 22:31:09;;;;;;;2.43;2.00;;;;;;;;;;7381280;19;20184;-80
2022/06/24 22:33:34;;;;;;;4.00;2.20;;;;;;;;;;7385622;19;20219;-80
2022/06/24 22:36:00;;;;;;;2.23;2.03;;;;;;;;;;7380852;19;20141;-82
2022/06/24 22:38:25;;;;;;;4.33;2.50;;;;;;;;;;7382685;19;20144;-80
2022/06/24 22:40:50;;;;;;;3.43;2.30;;;;;;;;;;7384862;19;20564;-81
2022/06/24 22:43:16;;;;;;;3.23;2.37;;;;;;;;;;7385852;19;20153;-80
2022/06/24 22:45:41;;;;;;;2.10;1.90;;;;;;;;;;7387342;19;20145;-80
2022/06/24 22:48:06;;;;;;;2.73;1.87;;;;;;;;;;7403441;19;20121;-83
2022/06/24 22:50:32;;;;;;;2.43;2.00;;;;;;;;;;7403825;19;20169;-81
2022/06/24 22:52:57;;;;;;;3.03;2.00;;;;;;;;;;7387337;19;20129;-83
2022/06/24 22:55:22;;;;;;;3.77;1.87;;;;;;;;;;7384511;19;20756;-81
2022/06/24 22:57:48;;;;;;;3.17;1.90;;;;;;;;;;7378262;19;20618;-80
2022/06/24 23:00:13;;;;;;;5.27;2.30;;;;;;;;;;7383607;19;20173;-82
2022/06/24 23:02:39;;;;;;;6.83;1.80;;;;;;;;;;7387792;19;20217;-83
2022/06/24 23:05:04;;;;;;;4.10;2.10;;;;;;;;;;7387716;19;20599;-83
2022/06/24 23:07:30;;;;;;;2.17;1.93;;;;;;;;;;7377322;19;20521;-80
2022/06/24 23:09:55;;;;;;;3.27;1.90;;;;;;;;;;7383628;19;20207;-82
2022/06/24 23:12:21;;;;;;;2.63;1.90;;;;;;;;;;7381004;19;20625;-81
2022/06/24 23:14:46;;;;;;;1.87;1.77;;;;;;;;;;7383519;19;20152;-81
2022/06/24 23:17:12;;;;;;;1.47;1.30;;;;;;;;;;7383162;19;20145;-80
2022/06/24 23:19:37;;;;;;;1.97;1.70;;;;;;;;;;7381725;19;20160;-81
2022/06/24 23:22:04;;;;;;;1.70;1.60;;;;;;;;;;7382673;19;20152;-82
2022/06/24 23:24:29;;;;;;;1.97;1.57;;;;;;;;;;7382836;19;20149;-80
2022/06/24 23:26:55;;;;;;;1.53;1.43;;;;;;;;;;7380810;19;20644;-81
2022/06/24 23:29:21;;;;;;;3.20;1.83;;;;;;;;;;7378129;19;20140;-80
2022/06/24 23:31:46;;;;;;;1.93;1.60;;;;;;;;;;7381840;19;20621;-83
2022/06/24 23:34:12;;;;;;;4.73;1.60;;;;;;;;;;7372543;19;20232;-86
2022/06/24 23:36:37;;;;;;;1.67;1.57;;;;;;;;;;7386666;19;20137;-80
2022/06/24 23:39:02;;;;;;;2.17;1.30;;;;;;;;;;7387415;19;20157;-83
2022/06/24 23:41:28;;;;;;;4.03;1.50;;;;;;;;;;7377648;19;20168;-79
2022/06/24 23:43:53;;;;;;;1.40;1.30;;;;;;;;;;7382919;19;20131;-82
2022/06/24 23:46:19;;;;;;;1.90;1.33;;;;;;;;;;7379899;19;20153;-83
2022/06/24 23:51:31;;;;;;;1.97;1.43;;;;;;;;;;7381054;19;21047;-82
2022/06/24 23:54:01;;;;;;;1.73;1.50;;;;;;;;;;7383733;19;20631;-81
2022/06/24 23:56:27;;;;;;;3.10;1.30;;;;;;;;;;7384689;19;20163;-80
2022/06/24 23:58:52;;;;;;;1.37;1.23;;;;;;;;;;7390374;19;20626;-82
